createdAt,value
2022-12-20T00:01:57.085Z,9.97
2022-12-20T00:04:25.525Z,10.10
2022-12-20T00:06:53.860Z,10.12
2022-12-20T00:09:22.203Z,10.10
2022-12-20T00:11:50.510Z,10.06
2022-12-20T00:14:20.348Z,9.99
2022-12-20T00:16:48.836Z,10.07
2022-12-20T00:19:17.303Z,10.10
2022-12-20T00:21:45.670Z,10.11
2022-12-20T00:24:14.015Z,10.14
2022-12-20T00:26:42.302Z,10.05
2022-12-20T00:29:10.679Z,10.08
2022-12-20T00:31:40.410Z,10.04
2022-12-20T00:34:08.817Z,10.02
2022-12-20T00:36:37.282Z,10.07
2022-12-20T00:39:05.869Z,9.99
2022-12-20T00:41:35.630Z,10.05
2022-12-20T00:44:05.378Z,9.99
2022-12-20T00:46:34.461Z,10.04
2022-12-20T00:49:04.551Z,10.00
2022-12-20T00:51:33.785Z,10.00
2022-12-20T00:54:02.148Z,10.02
2022-12-20T00:56:30.461Z,9.95
2022-12-20T00:59:00.900Z,9.95
2022-12-20T01:01:32.203Z,10.03
2022-12-20T01:04:01.432Z,10.11
2022-12-20T01:06:32.229Z,9.97
2022-12-20T01:09:01.666Z,10.08
2022-12-20T01:11:32.321Z,9.99
2022-12-20T01:14:04.845Z,10.05
2022-12-20T01:16:36.512Z,10.10
2022-12-20T01:19:06.506Z,10.06
2022-12-20T01:21:36.313Z,10.06
2022-12-20T01:24:05.636Z,10.13
2022-12-20T01:26:33.978Z,10.08
2022-12-20T01:29:02.378Z,10.22
2022-12-20T01:31:32.352Z,10.21
2022-12-20T01:34:02.228Z,10.26
2022-12-20T01:36:33.731Z,10.25
2022-12-20T01:39:06.636Z,10.22
2022-12-20T01:41:36.011Z,10.22
2022-12-20T01:44:07.952Z,10.22
2022-12-20T01:46:37.209Z,10.29
2022-12-20T01:49:11.222Z,10.33
2022-12-20T01:51:44.667Z,10.32
2022-12-20T01:54:18.980Z,10.31
2022-12-20T01:56:52.419Z,10.12
2022-12-20T01:59:21.359Z,10.04
2022-12-20T02:01:49.783Z,9.97
2022-12-20T02:04:18.221Z,9.97
2022-12-20T02:06:46.552Z,9.97
2022-12-20T02:09:16.670Z,10.04
2022-12-20T02:12:05.936Z,9.98
2022-12-20T02:14:52.882Z,10.04
2022-12-20T02:17:36.523Z,10.09
2022-12-20T02:20:51.522Z,10.07
2022-12-20T02:24:04.710Z,10.18
2022-12-20T02:27:22.097Z,10.16
2022-12-20T02:30:11.247Z,10.15
2022-12-20T02:32:48.741Z,10.23
2022-12-20T02:35:25.103Z,10.11
2022-12-20T02:37:56.028Z,10.07
2022-12-20T02:40:29.161Z,10.10
2022-12-20T02:43:02.943Z,9.83
2022-12-20T02:45:37.492Z,9.80
2022-12-20T02:48:11.293Z,9.84
2022-12-20T02:50:46.324Z,9.77
2022-12-20T02:53:15.697Z,9.81
2022-12-20T02:55:49.204Z,9.73
2022-12-20T02:58:28.599Z,9.67
2022-12-20T03:01:04.401Z,9.64
2022-12-20T03:03:34.766Z,9.59
2022-12-20T03:06:03.543Z,9.64
2022-12-20T03:08:32.159Z,9.59
2022-12-20T03:11:00.422Z,9.51
2022-12-20T03:13:28.670Z,9.49
2022-12-20T03:15:58.279Z,9.58
2022-12-20T03:18:26.529Z,9.56
2022-12-20T03:20:54.842Z,9.45
2022-12-20T03:23:23.106Z,9.32
2022-12-20T03:25:51.620Z,9.39
2022-12-20T03:28:19.843Z,9.37
2022-12-20T03:30:48.701Z,9.30
2022-12-20T03:33:18.480Z,9.30
2022-12-20T03:35:47.944Z,9.24
2022-12-20T03:38:16.291Z,9.16
2022-12-20T03:40:44.743Z,9.19
2022-12-20T03:43:12.996Z,9.14
2022-12-20T03:45:41.301Z,9.13
2022-12-20T03:48:09.553Z,9.17
2022-12-20T03:50:39.344Z,9.28
2022-12-20T03:53:07.740Z,9.25
2022-12-20T03:55:36.031Z,9.25
2022-12-20T03:58:04.295Z,9.26
2022-12-20T04:00:32.642Z,9.11
2022-12-20T04:03:00.983Z,9.29
2022-12-20T04:05:29.368Z,9.24
2022-12-20T04:07:58.963Z,9.19
2022-12-20T04:10:27.264Z,9.10
2022-12-20T04:12:55.496Z,9.13
2022-12-20T04:15:23.754Z,9.11
2022-12-20T04:17:54.064Z,9.15
2022-12-20T04:20:24.128Z,9.16
2022-12-20T04:22:53.262Z,9.15
2022-12-20T04:25:23.233Z,9.23
2022-12-20T04:27:51.450Z,9.03
2022-12-20T04:30:19.941Z,9.11
2022-12-20T04:32:48.202Z,9.07
2022-12-20T04:35:16.646Z,9.10
2022-12-20T04:37:44.909Z,9.02
2022-12-20T04:40:14.102Z,8.98
2022-12-20T04:42:43.737Z,9.00
2022-12-20T04:45:12.737Z,8.99
2022-12-20T04:47:41.041Z,9.10
2022-12-20T04:50:10.161Z,9.23
2022-12-20T04:52:55.707Z,9.29
2022-12-20T04:55:24.035Z,9.25
2022-12-20T04:57:53.764Z,9.17
2022-12-20T05:00:22.562Z,9.12
2022-12-20T05:02:51.461Z,9.20
2022-12-20T05:05:20.046Z,9.21
2022-12-20T05:07:48.319Z,9.16
2022-12-20T05:10:16.872Z,9.17
2022-12-20T05:12:46.093Z,9.25
2022-12-20T05:15:15.786Z,9.27
2022-12-20T05:17:44.017Z,9.24
2022-12-20T05:20:14.027Z,9.18
2022-12-20T05:22:59.566Z,9.23
2022-12-20T05:25:45.457Z,9.20
2022-12-20T05:28:13.714Z,9.36
2022-12-20T05:30:43.328Z,9.25
2022-12-20T05:33:12.883Z,9.17
2022-12-20T05:35:41.849Z,9.31
2022-12-20T05:38:10.071Z,9.39
2022-12-20T05:40:38.352Z,9.39
2022-12-20T05:43:07.266Z,9.36
2022-12-20T05:45:36.228Z,9.31
2022-12-20T05:48:06.108Z,9.35
2022-12-20T05:50:34.520Z,9.36
2022-12-20T05:53:09.117Z,9.38
2022-12-20T05:55:40.488Z,9.45
2022-12-20T05:58:09.023Z,9.49
2022-12-20T06:00:37.468Z,9.52
2022-12-20T06:03:07.168Z,9.49
2022-12-20T06:05:35.514Z,9.45
2022-12-20T06:08:03.935Z,9.42
2022-12-20T06:10:32.826Z,9.43
2022-12-20T06:13:01.223Z,9.51
2022-12-20T06:15:30.049Z,9.57
2022-12-20T06:17:58.566Z,9.55
2022-12-20T06:20:28.650Z,9.66
2022-12-20T06:22:56.938Z,9.71
2022-12-20T06:25:25.679Z,9.67
2022-12-20T06:27:53.907Z,9.61
2022-12-20T06:30:22.478Z,9.63
2022-12-20T06:32:50.819Z,9.62
2022-12-20T06:35:19.136Z,9.60
2022-12-20T06:37:48.755Z,9.63
2022-12-20T06:40:17.250Z,9.63
2022-12-20T06:42:45.638Z,9.70
2022-12-20T06:45:14.120Z,9.77
2022-12-20T06:47:42.382Z,9.84
2022-12-20T06:50:10.680Z,9.89
2022-12-20T06:52:38.963Z,9.80
2022-12-20T06:55:09.815Z,9.88
2022-12-20T06:57:38.101Z,9.81
2022-12-20T07:00:08.552Z,9.96
2022-12-20T07:02:36.964Z,9.95
2022-12-20T07:05:05.930Z,9.87
2022-12-20T07:07:38.570Z,9.95
2022-12-20T07:10:12.722Z,9.86
2022-12-20T07:12:47.187Z,9.98
2022-12-20T07:15:16.435Z,9.95
2022-12-20T07:17:45.136Z,9.97
2022-12-20T07:20:14.544Z,9.96
2022-12-20T07:22:43.473Z,9.94
2022-12-20T07:25:13.248Z,9.96
2022-12-20T07:27:41.593Z,9.98
2022-12-20T07:30:10.886Z,9.94
2022-12-20T07:32:39.192Z,10.01
2022-12-20T07:35:08.781Z,9.98
2022-12-20T07:37:37.057Z,9.92
2022-12-20T07:40:07.647Z,10.09
2022-12-20T07:42:40.277Z,10.04
2022-12-20T07:45:11.905Z,9.93
2022-12-20T07:47:40.162Z,9.88
2022-12-20T07:50:11.753Z,9.94
2022-12-20T07:52:44.658Z,9.88
2022-12-20T07:55:14.356Z,9.85
2022-12-20T07:57:47.604Z,9.96
2022-12-20T08:00:18.767Z,10.06
2022-12-20T08:02:55.034Z,9.94
2022-12-20T08:05:24.469Z,9.93
2022-12-20T08:07:58.900Z,10.13
2022-12-20T08:10:28.604Z,10.13
2022-12-20T08:12:59.589Z,10.15
2022-12-20T08:15:29.699Z,10.20
2022-12-20T08:17:57.976Z,10.06
2022-12-20T08:20:26.420Z,10.05
2022-12-20T08:22:54.784Z,10.12
2022-12-20T08:25:23.037Z,10.19
2022-12-20T08:27:51.375Z,10.16
2022-12-20T08:30:21.137Z,10.13
2022-12-20T08:32:49.827Z,10.06
2022-12-20T08:35:18.268Z,10.20
2022-12-20T08:37:46.520Z,10.25
2022-12-20T08:40:15.784Z,10.28
2022-12-20T08:42:44.085Z,10.38
2022-12-20T08:45:13.586Z,10.25
2022-12-20T08:47:43.215Z,10.27
2022-12-20T08:50:13.639Z,10.31
2022-12-20T08:52:41.904Z,10.28
2022-12-20T08:55:12.971Z,10.30
2022-12-20T08:57:41.628Z,10.35
2022-12-20T09:00:11.856Z,10.35
2022-12-20T09:02:41.482Z,10.30
2022-12-20T09:05:11.860Z,10.32
2022-12-20T09:07:40.448Z,10.24
2022-12-20T09:10:10.569Z,10.26
2022-12-20T09:12:39.328Z,10.40
2022-12-20T09:15:09.104Z,10.37
2022-12-20T09:17:37.629Z,10.41
2022-12-20T09:20:08.070Z,10.32
2022-12-20T09:22:37.987Z,10.33
2022-12-20T09:25:08.104Z,10.27
2022-12-20T09:27:36.572Z,10.30
2022-12-20T09:30:05.398Z,10.13
2022-12-20T09:32:33.916Z,10.22
2022-12-20T09:35:03.377Z,10.29
2022-12-20T09:37:32.419Z,10.36
2022-12-20T09:40:02.326Z,10.33
2022-12-20T09:42:32.230Z,10.26
2022-12-20T09:45:06.210Z,10.23
2022-12-20T09:47:37.329Z,10.06
2022-12-20T09:50:07.967Z,10.06
2022-12-20T09:52:56.761Z,10.21
2022-12-20T09:55:35.445Z,10.18
2022-12-20T09:58:27.159Z,10.19
2022-12-20T10:00:55.827Z,10.06
2022-12-20T10:03:27.537Z,10.12
2022-12-20T10:05:58.265Z,10.10
2022-12-20T10:08:44.784Z,10.07
2022-12-20T10:11:28.694Z,10.13
2022-12-20T10:14:09.284Z,10.17
2022-12-20T10:16:45.061Z,10.26
2022-12-20T10:19:40.322Z,10.32
2022-12-20T10:22:15.406Z,10.38
2022-12-20T10:24:49.042Z,10.46
2022-12-20T10:27:21.797Z,10.48
2022-12-20T10:29:51.912Z,10.45
2022-12-20T10:32:23.390Z,10.48
2022-12-20T10:34:58.239Z,10.43
2022-12-20T10:37:26.801Z,10.46
2022-12-20T10:39:55.444Z,10.49
2022-12-20T10:42:31.658Z,10.37
2022-12-20T10:45:00.829Z,10.30
2022-12-20T10:47:39.718Z,10.31
2022-12-20T10:50:16.884Z,10.40
2022-12-20T10:52:46.669Z,10.50
2022-12-20T10:55:36.059Z,10.39
2022-12-20T10:58:16.550Z,10.49
2022-12-20T11:00:46.321Z,10.49
2022-12-20T11:03:18.483Z,10.52
2022-12-20T11:05:59.641Z,10.38
2022-12-20T11:08:38.094Z,10.32
2022-12-20T11:11:18.697Z,10.42
2022-12-20T11:13:49.841Z,10.51
2022-12-20T11:16:28.065Z,10.54
2022-12-20T11:19:07.964Z,10.67
2022-12-20T11:21:46.391Z,10.60
2022-12-20T11:24:24.068Z,10.70
2022-12-20T11:27:16.710Z,10.61
2022-12-20T11:30:09.783Z,10.53
2022-12-20T11:33:00.033Z,10.51
2022-12-20T11:35:40.483Z,10.50
2022-12-20T11:38:18.939Z,10.46
2022-12-20T11:40:56.338Z,10.49
2022-12-20T11:44:01.403Z,10.56
2022-12-20T11:46:48.373Z,10.60
2022-12-20T11:49:45.004Z,10.47
2022-12-20T11:52:23.681Z,10.48
2022-12-20T11:55:03.417Z,10.55
2022-12-20T11:58:08.964Z,10.74
2022-12-20T12:00:28.318Z,10.82
2022-12-20T12:03:05.237Z,10.72
2022-12-20T12:05:42.585Z,10.94
2022-12-20T12:08:19.050Z,10.96
2022-12-20T12:11:01.141Z,11.06
2022-12-20T12:13:33.258Z,11.01
2022-12-20T12:16:09.979Z,11.06
2022-12-20T12:18:42.158Z,11.07
2022-12-20T12:21:18.517Z,10.99
2022-12-20T12:23:58.731Z,11.15
2022-12-20T12:26:29.545Z,11.20
2022-12-20T12:29:00.791Z,11.25
2022-12-20T12:31:37.553Z,11.23
2022-12-20T12:34:22.022Z,11.28
2022-12-20T12:37:23.050Z,11.29
2022-12-20T12:40:18.079Z,11.27
2022-12-20T12:43:29.263Z,11.32
2022-12-20T12:45:59.694Z,11.22
2022-12-20T12:48:37.051Z,11.25
2022-12-20T12:51:09.067Z,10.87
2022-12-20T12:53:43.535Z,10.78
2022-12-20T12:56:45.551Z,10.68
2022-12-20T12:59:43.882Z,10.59
2022-12-20T13:02:35.446Z,10.61
2022-12-20T13:05:37.020Z,10.58
2022-12-20T13:08:17.812Z,10.58
2022-12-20T13:11:02.646Z,10.77
2022-12-20T13:13:31.228Z,10.72
2022-12-20T13:16:14.194Z,10.60
2022-12-20T13:19:11.782Z,10.70
2022-12-20T13:21:41.932Z,10.72
2022-12-20T13:24:50.570Z,10.68
2022-12-20T13:27:34.508Z,10.57
2022-12-20T13:30:39.603Z,10.62
2022-12-20T13:33:39.053Z,10.60
2022-12-20T13:36:33.496Z,10.70
2022-12-20T13:39:05.603Z,10.80
2022-12-20T13:41:46.259Z,11.11
2022-12-20T13:44:41.306Z,10.95
2022-12-20T13:47:30.831Z,11.07
2022-12-20T13:50:03.076Z,11.12
2022-12-20T13:52:33.723Z,11.10
2022-12-20T13:55:07.807Z,11.46
2022-12-20T13:57:45.987Z,11.20
2022-12-20T14:00:18.990Z,11.46
2022-12-20T14:02:48.318Z,11.10
2022-12-20T14:05:20.879Z,10.89
2022-12-20T14:08:00.590Z,10.76
2022-12-20T14:10:32.260Z,10.62
2022-12-20T14:13:02.577Z,10.61
2022-12-20T14:15:33.073Z,10.41
2022-12-20T14:18:07.868Z,10.65
2022-12-20T14:20:38.421Z,10.57
2022-12-20T14:23:12.147Z,10.84
2022-12-20T14:25:43.908Z,10.63
2022-12-20T14:28:27.146Z,10.63
2022-12-20T14:30:57.638Z,10.68
2022-12-20T14:33:36.164Z,10.49
2022-12-20T14:36:21.488Z,10.41
2022-12-20T14:38:51.922Z,10.50
2022-12-20T14:41:33.397Z,10.81
2022-12-20T14:44:14.263Z,10.68
2022-12-20T14:46:50.024Z,10.81
2022-12-20T14:49:24.964Z,10.92
2022-12-20T14:52:06.601Z,10.99
2022-12-20T14:57:26.864Z,10.91
2022-12-20T15:00:03.195Z,10.90
2022-12-20T15:02:40.651Z,10.94
2022-12-20T15:05:26.036Z,10.80
2022-12-20T15:07:54.313Z,10.62
2022-12-20T15:10:23.623Z,10.73
2022-12-20T15:12:51.924Z,10.71
2022-12-20T15:15:29.466Z,10.77
2022-12-20T15:17:58.425Z,10.17
2022-12-20T15:20:26.828Z,10.23
2022-12-20T15:22:55.348Z,10.57
2022-12-20T15:25:23.659Z,10.44
2022-12-20T15:27:51.960Z,10.53
2022-12-20T15:30:22.284Z,10.54
2022-12-20T15:32:55.684Z,10.71
2022-12-20T15:35:25.531Z,10.74
2022-12-20T15:37:53.770Z,10.54
2022-12-20T15:40:22.023Z,10.58
2022-12-20T15:42:50.278Z,10.38
2022-12-20T15:45:18.558Z,10.32
2022-12-20T15:47:49.059Z,10.18
2022-12-20T15:50:17.477Z,10.24
2022-12-20T15:52:45.751Z,10.36
2022-12-20T15:55:13.958Z,10.44
2022-12-20T15:57:42.375Z,10.69
2022-12-20T16:00:13.471Z,10.59
2022-12-20T16:02:42.026Z,10.61
2022-12-20T16:05:14.568Z,10.49
2022-12-20T16:07:42.811Z,10.45
2022-12-20T16:10:15.396Z,10.70
2022-12-20T16:12:44.092Z,11.07
2022-12-20T16:15:21.616Z,10.69
2022-12-20T16:17:50.195Z,10.62
2022-12-20T16:20:20.465Z,10.78
2022-12-20T16:22:49.049Z,10.55
2022-12-20T16:25:27.012Z,10.49
2022-12-20T16:27:55.658Z,10.56
2022-12-20T16:30:24.363Z,10.25
2022-12-20T16:32:53.345Z,10.14
2022-12-20T16:35:36.260Z,10.44
2022-12-20T16:38:05.489Z,10.19
2022-12-20T16:40:34.806Z,10.11
2022-12-20T16:43:03.262Z,10.23
2022-12-20T16:45:34.107Z,10.53
2022-12-20T16:48:02.359Z,10.26
2022-12-20T16:50:31.958Z,10.12
2022-12-20T16:53:00.210Z,10.47
2022-12-20T16:55:32.173Z,10.24
2022-12-20T16:58:04.339Z,10.34
2022-12-20T17:00:32.576Z,10.74
2022-12-20T17:03:01.000Z,10.60
2022-12-20T17:05:35.221Z,10.48
2022-12-20T17:08:03.813Z,10.53
2022-12-20T17:10:32.017Z,10.34
2022-12-20T17:13:00.424Z,10.13
2022-12-20T17:15:32.723Z,10.36
2022-12-20T17:18:00.957Z,10.34
2022-12-20T17:20:35.004Z,10.25
2022-12-20T17:25:58.148Z,10.15
2022-12-20T17:28:27.233Z,10.10
2022-12-20T17:30:55.473Z,10.17
2022-12-20T17:33:23.709Z,10.37
2022-12-20T17:35:51.921Z,10.43
2022-12-20T17:38:22.618Z,10.53
2022-12-20T17:40:50.861Z,10.28
2022-12-20T17:43:19.130Z,10.21
2022-12-20T17:45:47.798Z,10.28
2022-12-20T17:48:16.047Z,10.39
2022-12-20T17:50:44.234Z,10.27
2022-12-20T17:53:13.357Z,10.35
2022-12-20T17:55:42.936Z,10.32
2022-12-20T17:58:11.283Z,10.29
2022-12-20T18:00:39.772Z,10.32
2022-12-20T18:03:12.685Z,10.14
2022-12-20T18:05:48.339Z,10.26
2022-12-20T18:08:17.067Z,10.28
2022-12-20T18:10:46.832Z,10.32
2022-12-20T18:13:15.024Z,10.08
2022-12-20T18:15:43.224Z,10.19
2022-12-20T18:18:11.435Z,9.93
2022-12-20T18:20:39.650Z,10.15
2022-12-20T18:23:07.956Z,10.72
2022-12-20T18:25:36.912Z,10.53
2022-12-20T18:28:07.211Z,10.44
2022-12-20T18:30:36.450Z,10.41
2022-12-20T18:33:04.646Z,10.38
2022-12-20T18:35:32.878Z,10.46
2022-12-20T18:38:01.077Z,10.50
2022-12-20T18:40:29.338Z,10.52
2022-12-20T18:43:01.111Z,10.65
2022-12-20T18:45:37.077Z,10.32
2022-12-20T18:48:05.623Z,10.59
2022-12-20T18:50:37.390Z,10.80
2022-12-20T18:53:05.915Z,10.21
2022-12-20T18:55:37.298Z,10.29
2022-12-20T18:58:05.781Z,10.28
2022-12-20T19:00:34.325Z,10.37
2022-12-20T19:03:04.357Z,10.31
2022-12-20T19:05:34.703Z,10.36
2022-12-20T19:08:03.457Z,10.32
2022-12-20T19:10:33.494Z,10.46
2022-12-20T19:13:05.680Z,10.48
2022-12-20T19:15:34.755Z,10.42
2022-12-20T19:18:04.739Z,10.41
2022-12-20T19:20:35.806Z,10.42
2022-12-20T19:23:04.395Z,10.55
2022-12-20T19:25:36.433Z,10.25
2022-12-20T19:28:05.475Z,10.61
2022-12-20T19:30:34.006Z,10.69
2022-12-20T19:33:03.896Z,10.57
2022-12-20T19:35:54.748Z,10.58
2022-12-20T19:38:20.973Z,10.74
2022-12-20T19:40:54.218Z,10.90
2022-12-20T19:43:22.714Z,10.73
2022-12-20T19:45:51.253Z,10.57
2022-12-20T19:48:21.220Z,10.34
2022-12-20T19:50:49.750Z,10.58
2022-12-20T19:53:18.231Z,11.10
2022-12-20T19:55:53.731Z,10.69
2022-12-20T19:58:22.418Z,10.77
2022-12-20T20:00:51.383Z,10.91
2022-12-20T20:03:21.595Z,11.01
2022-12-20T20:05:50.394Z,11.18
2022-12-20T20:08:19.164Z,11.48
2022-12-20T20:10:48.649Z,11.06
2022-12-20T20:13:17.133Z,11.32
2022-12-20T20:15:52.055Z,10.79
2022-12-20T20:18:22.811Z,10.59
2022-12-20T20:20:51.374Z,10.84
2022-12-20T20:23:19.903Z,11.04
2022-12-20T20:25:49.093Z,11.32
2022-12-20T20:28:17.621Z,11.47
2022-12-20T20:30:48.777Z,11.49
2022-12-20T20:33:17.827Z,11.47
2022-12-20T20:35:55.646Z,11.42
2022-12-20T20:38:24.993Z,11.30
2022-12-20T20:40:53.562Z,11.29
2022-12-20T20:43:22.329Z,11.29
2022-12-20T20:45:51.481Z,11.37
2022-12-20T20:48:20.296Z,11.47
2022-12-20T20:50:50.155Z,11.51
2022-12-20T20:53:19.229Z,11.52
2022-12-20T20:55:47.915Z,11.09
2022-12-20T20:58:16.622Z,10.76
2022-12-20T21:00:45.187Z,10.67
2022-12-20T21:03:13.834Z,10.74
2022-12-20T21:08:33.077Z,10.30
2022-12-20T21:11:06.235Z,10.18
2022-12-20T21:13:34.938Z,10.38
2022-12-20T21:16:08.015Z,10.28
2022-12-20T21:18:36.844Z,10.59
2022-12-20T21:21:09.814Z,10.74
2022-12-20T21:23:40.509Z,10.78
2022-12-20T21:26:09.010Z,10.94
2022-12-20T21:28:37.532Z,11.04
2022-12-20T21:31:09.166Z,10.95
2022-12-20T21:33:38.195Z,10.74
2022-12-20T21:36:09.420Z,10.61
2022-12-20T21:38:39.093Z,10.82
2022-12-20T21:41:11.455Z,10.87
2022-12-20T21:43:40.050Z,10.96
2022-12-20T21:46:11.313Z,11.04
2022-12-20T21:48:40.164Z,11.23
2022-12-20T21:51:10.829Z,11.58
2022-12-20T21:53:44.746Z,11.67
2022-12-20T21:56:13.819Z,11.44
2022-12-20T21:58:42.442Z,11.42
2022-12-20T22:01:11.009Z,11.52
2022-12-20T22:03:39.444Z,11.42
2022-12-20T22:06:08.310Z,11.43
2022-12-20T22:08:36.566Z,11.35
2022-12-20T22:11:09.628Z,11.33
2022-12-20T22:13:42.001Z,11.43
2022-12-20T22:16:12.522Z,11.35
2022-12-20T22:18:42.493Z,11.57
2022-12-20T22:21:14.744Z,11.37
2022-12-20T22:23:44.178Z,11.30
2022-12-20T22:26:16.564Z,11.38
2022-12-20T22:28:47.836Z,11.27
2022-12-20T22:31:17.611Z,11.30
2022-12-20T22:33:46.682Z,11.37
2022-12-20T22:36:17.431Z,11.20
2022-12-20T22:38:46.053Z,11.11
2022-12-20T22:41:18.587Z,11.35
2022-12-20T22:43:48.047Z,11.54
2022-12-20T22:46:18.290Z,11.74
2022-12-20T22:48:47.618Z,11.47
2022-12-20T22:51:18.735Z,11.72
2022-12-20T22:53:48.540Z,11.57
2022-12-20T22:56:21.120Z,11.48
2022-12-20T22:58:50.182Z,11.73
2022-12-20T23:01:20.895Z,11.86
2022-12-20T23:03:49.893Z,11.90
2022-12-20T23:06:21.247Z,12.00
2022-12-20T23:08:49.954Z,12.00
2022-12-20T23:11:39.864Z,12.02
2022-12-20T23:14:31.340Z,12.09
2022-12-20T23:16:59.713Z,12.16
2022-12-20T23:19:28.655Z,12.23
2022-12-20T23:22:14.204Z,12.19
2022-12-20T23:24:42.444Z,12.20
2022-12-20T23:27:12.010Z,12.22
2022-12-20T23:29:40.660Z,12.23
2022-12-20T23:32:08.947Z,12.24
2022-12-20T23:34:37.264Z,12.26
2022-12-20T23:37:05.558Z,12.27
2022-12-20T23:39:33.855Z,12.27
2022-12-20T23:42:02.133Z,12.25
2022-12-20T23:44:31.991Z,12.27
2022-12-20T23:47:00.285Z,12.24
2022-12-20T23:49:28.522Z,12.25
2022-12-20T23:51:56.753Z,12.28
2022-12-20T23:54:25.042Z,12.28
2022-12-20T23:56:53.394Z,12.25
2022-12-20T23:59:21.633Z,12.27
